createdAt,value
2022-10-05T00:02:25.932Z,7.1
2022-10-05T00:04:52.529Z,7.1
2022-10-05T00:07:19.181Z,7.2
2022-10-05T00:09:45.781Z,7.3
2022-10-05T00:12:12.409Z,7.5
2022-10-05T00:14:39.027Z,7.5
2022-10-05T00:17:04.163Z,7.3
2022-10-05T00:19:30.775Z,7.3
2022-10-05T00:21:57.435Z,7.4
2022-10-05T00:24:24.028Z,7.4
2022-10-05T00:26:50.654Z,7.4
2022-10-05T00:29:17.332Z,7.4
2022-10-05T00:31:43.905Z,7.4
2022-10-05T00:34:10.533Z,7.3
2022-10-05T00:36:37.181Z,7.2
2022-10-05T00:39:03.747Z,7.2
2022-10-05T00:41:30.376Z,7.2
2022-10-05T00:43:57.069Z,7.1
2022-10-05T00:46:23.688Z,7
2022-10-05T00:48:48.744Z,7
2022-10-05T00:51:15.400Z,7
2022-10-05T00:53:42.004Z,7
2022-10-05T00:56:08.632Z,7
2022-10-05T00:58:35.268Z,7
2022-10-05T01:01:01.879Z,6.9
2022-10-05T01:03:28.508Z,6.8
2022-10-05T01:05:55.118Z,6.7
2022-10-05T01:08:21.781Z,6.7
2022-10-05T01:10:48.365Z,6.7
2022-10-05T01:13:15.007Z,6.7
2022-10-05T01:15:41.621Z,6.6
2022-10-05T01:18:08.228Z,6.6
2022-10-05T01:20:33.367Z,6.7
2022-10-05T01:23:00.006Z,6.8
2022-10-05T01:25:26.619Z,6.8
2022-10-05T01:27:53.219Z,6.7
2022-10-05T01:30:19.865Z,6.6
2022-10-05T01:32:46.486Z,6.5
2022-10-05T01:35:13.101Z,6.4
2022-10-05T01:37:39.706Z,6.5
2022-10-05T01:40:06.347Z,6.6
2022-10-05T01:42:32.965Z,6.7
2022-10-05T01:44:59.620Z,6.5
2022-10-05T01:47:26.224Z,6.4
2022-10-05T01:49:52.838Z,6.3
2022-10-05T01:52:17.960Z,6.3
2022-10-05T01:54:44.594Z,6.3
2022-10-05T01:57:11.248Z,6.2
2022-10-05T01:59:37.837Z,6.2
2022-10-05T02:02:04.451Z,6.3
2022-10-05T02:04:31.086Z,6.3
2022-10-05T02:06:57.709Z,6.3
2022-10-05T02:09:24.340Z,6.3
2022-10-05T02:11:50.947Z,6.3
2022-10-05T02:14:17.634Z,6.3
2022-10-05T02:16:44.180Z,6.3
2022-10-05T02:19:10.827Z,6.4
2022-10-05T02:21:37.429Z,6.4
2022-10-05T02:24:02.565Z,6.5
2022-10-05T02:26:29.180Z,6.5
2022-10-05T02:28:55.827Z,6.4
2022-10-05T02:31:22.434Z,6.3
2022-10-05T02:33:49.066Z,6.3
2022-10-05T02:36:15.705Z,6.3
2022-10-05T02:38:42.318Z,6.4
2022-10-05T02:41:08.925Z,6.4
2022-10-05T02:43:35.545Z,6.7
2022-10-05T02:46:02.180Z,6.8
2022-10-05T02:48:28.798Z,6.8
2022-10-05T02:50:55.429Z,7.1
2022-10-05T02:53:22.152Z,7.1
2022-10-05T02:55:47.197Z,7
2022-10-05T02:58:13.797Z,7
2022-10-05T03:00:40.439Z,7
2022-10-05T03:03:07.099Z,7.1
2022-10-05T03:05:33.653Z,7.1
2022-10-05T03:08:00.277Z,7.1
2022-10-05T03:10:26.916Z,7.1
2022-10-05T03:12:53.536Z,7.2
2022-10-05T03:15:20.153Z,7.2
2022-10-05T03:17:46.797Z,7.2
2022-10-05T03:20:13.412Z,7.2
2022-10-05T03:22:40.017Z,7.2
2022-10-05T03:25:06.646Z,7.2
2022-10-05T03:27:31.786Z,7.2
2022-10-05T03:29:58.401Z,7.2
2022-10-05T03:32:25.041Z,7.2
2022-10-05T03:34:51.642Z,7.2
2022-10-05T03:37:18.267Z,7.2
2022-10-05T03:39:44.904Z,7.2
2022-10-05T03:42:11.522Z,7.2
2022-10-05T03:44:38.145Z,7.2
2022-10-05T03:47:04.777Z,7.2
2022-10-05T03:49:31.392Z,7.2
2022-10-05T03:51:58.007Z,7.2
2022-10-05T03:54:24.630Z,7.2
2022-10-05T03:56:51.265Z,7.2
2022-10-05T03:59:16.384Z,7.2
2022-10-05T04:01:43.018Z,7.2
2022-10-05T04:04:09.632Z,7.2
2022-10-05T04:06:36.261Z,7.2
2022-10-05T04:09:02.883Z,7.2
2022-10-05T04:11:29.511Z,7.2
2022-10-05T04:13:56.125Z,7.2
2022-10-05T04:16:22.751Z,7.2
2022-10-05T04:18:49.364Z,7.2
2022-10-05T04:21:16.016Z,7.2
2022-10-05T04:23:42.678Z,7.2
2022-10-05T04:26:09.268Z,7.2
2022-10-05T04:28:35.918Z,7.2
2022-10-05T04:31:00.997Z,7.1
2022-10-05T04:33:27.642Z,7.1
2022-10-05T04:35:54.238Z,7.1
2022-10-05T04:38:20.891Z,7.1
2022-10-05T04:40:47.491Z,7.1
2022-10-05T04:43:14.156Z,7.1
2022-10-05T04:45:40.747Z,7.1
2022-10-05T04:48:07.408Z,7.1
2022-10-05T04:50:33.989Z,7
2022-10-05T04:53:00.647Z,7
2022-10-05T04:55:27.230Z,7
2022-10-05T04:57:53.856Z,7
2022-10-05T05:00:20.464Z,6.9
2022-10-05T05:02:45.608Z,6.9
2022-10-05T05:05:12.223Z,6.9
2022-10-05T05:07:38.849Z,6.9
2022-10-05T05:10:05.531Z,6.9
2022-10-05T05:12:32.089Z,6.9
2022-10-05T05:14:58.747Z,6.9
2022-10-05T05:17:25.355Z,6.9
2022-10-05T05:19:51.975Z,6.9
2022-10-05T05:22:18.577Z,7
2022-10-05T05:27:11.841Z,7
2022-10-05T05:29:38.523Z,7
2022-10-05T05:32:05.112Z,7
2022-10-05T05:34:30.218Z,6.9
2022-10-05T05:36:56.831Z,6.9
2022-10-05T05:39:23.455Z,6.9
2022-10-05T05:41:50.185Z,6.9
2022-10-05T05:44:16.760Z,6.9
2022-10-05T05:46:43.322Z,6.8
2022-10-05T05:49:09.949Z,6.7
2022-10-05T05:51:36.610Z,6.7
2022-10-05T05:54:03.239Z,6.8
2022-10-05T05:56:29.822Z,6.8
2022-10-05T05:58:56.447Z,6.8
2022-10-05T06:01:23.077Z,6.7
2022-10-05T06:03:49.801Z,6.7
2022-10-05T06:06:16.364Z,6.7
2022-10-05T06:08:41.494Z,6.7
2022-10-05T06:11:08.085Z,6.7
2022-10-05T06:13:34.794Z,6.8
2022-10-05T06:16:01.314Z,6.7
2022-10-05T06:18:27.943Z,6.7
2022-10-05T06:20:54.592Z,6.8
2022-10-05T06:23:21.188Z,6.8
2022-10-05T06:25:47.865Z,6.8
2022-10-05T06:28:14.555Z,6.9
2022-10-05T06:30:41.174Z,6.9
2022-10-05T06:33:07.700Z,7
2022-10-05T06:35:34.299Z,7.1
2022-10-05T06:38:01.042Z,7.1
2022-10-05T06:40:26.046Z,7.2
2022-10-05T06:42:52.688Z,7.4
2022-10-05T06:45:19.306Z,7.5
2022-10-05T06:50:12.577Z,7.5
2022-10-05T06:52:37.697Z,7.6
2022-10-05T06:55:04.344Z,7.7
2022-10-05T06:57:30.939Z,7.9
2022-10-05T06:59:57.588Z,7.9
2022-10-05T07:02:24.165Z,7.9
2022-10-05T07:04:50.808Z,8.4
2022-10-05T07:07:17.406Z,8.7
2022-10-05T07:09:44.062Z,8.9
2022-10-05T07:12:10.663Z,9.8
2022-10-05T07:14:37.296Z,10.3
2022-10-05T07:17:03.961Z,10.4
2022-10-05T07:19:30.522Z,10.8
2022-10-05T07:21:57.310Z,11.4
2022-10-05T07:24:22.319Z,12
2022-10-05T07:26:48.927Z,12.7
2022-10-05T07:29:15.527Z,14
2022-10-05T07:31:42.147Z,15.3
2022-10-05T07:34:08.769Z,16.2
2022-10-05T07:36:35.543Z,16.7
2022-10-05T07:39:02.045Z,17.1
2022-10-05T07:41:28.746Z,17.5
2022-10-05T07:43:55.264Z,18.1
2022-10-05T07:46:21.870Z,18.7
2022-10-05T07:48:48.625Z,18.8
2022-10-05T07:51:15.133Z,18.5
2022-10-05T07:53:41.775Z,18.3
2022-10-05T07:56:06.879Z,18.2
2022-10-05T07:58:33.535Z,18.4
2022-10-05T08:01:00.154Z,18.2
2022-10-05T08:03:26.834Z,18.2
2022-10-05T08:05:53.416Z,18.5
2022-10-05T08:08:20.000Z,19
2022-10-05T08:10:46.692Z,19.5
2022-10-05T08:13:13.231Z,19.5
2022-10-05T08:15:39.945Z,19.6
2022-10-05T08:18:06.601Z,19.3
2022-10-05T08:20:33.117Z,19.5
2022-10-05T08:22:59.825Z,19.5
2022-10-05T08:25:26.347Z,19.9
2022-10-05T08:27:51.550Z,20.1
2022-10-05T08:30:18.094Z,20.2
2022-10-05T08:32:44.747Z,20.7
2022-10-05T08:35:11.351Z,20.6
2022-10-05T08:37:37.988Z,20.5
2022-10-05T08:40:04.598Z,20.8
2022-10-05T08:42:31.334Z,20.7
2022-10-05T08:44:57.846Z,21
2022-10-05T08:47:24.453Z,21.8
2022-10-05T08:49:51.076Z,22.4
2022-10-05T08:52:17.744Z,22.8
2022-10-05T08:54:44.326Z,23.7
2022-10-05T08:57:10.953Z,24.1
2022-10-05T08:59:36.125Z,24.4
2022-10-05T09:02:02.704Z,25
2022-10-05T09:04:29.332Z,25.2
2022-10-05T09:06:55.954Z,25.4
2022-10-05T09:11:49.186Z,26
2022-10-05T09:14:15.833Z,25.6
2022-10-05T09:16:42.446Z,25.8
2022-10-05T09:19:09.065Z,26.4
2022-10-05T09:21:35.822Z,26.3
2022-10-05T09:24:02.395Z,25.9
2022-10-05T09:26:28.959Z,25.8
2022-10-05T09:28:55.561Z,26.5
2022-10-05T09:31:20.718Z,26.7
2022-10-05T09:33:47.311Z,26.7
2022-10-05T09:36:13.916Z,26.7
2022-10-05T09:38:40.545Z,27
2022-10-05T09:41:07.163Z,26.5
2022-10-05T09:43:33.896Z,26.3
2022-10-05T09:46:00.448Z,25.9
2022-10-05T09:48:27.079Z,24.6
2022-10-05T09:50:53.724Z,23.7
2022-10-05T09:53:20.294Z,23.5
2022-10-05T09:55:46.941Z,23.5
2022-10-05T09:58:13.526Z,23.2
2022-10-05T10:00:40.143Z,22.6
2022-10-05T10:03:05.277Z,22
2022-10-05T10:05:31.902Z,22.1
2022-10-05T10:07:58.525Z,22.2
2022-10-05T10:10:25.133Z,22.1
2022-10-05T10:12:51.771Z,21.8
2022-10-05T10:15:18.479Z,21.7
2022-10-05T10:17:45.021Z,21.8
2022-10-05T10:20:11.639Z,22
2022-10-05T10:25:04.943Z,22.1
2022-10-05T10:27:31.606Z,21.9
2022-10-05T10:29:58.182Z,22.1
2022-10-05T10:32:24.855Z,22.1
2022-10-05T10:34:49.930Z,22.2
2022-10-05T10:37:16.575Z,21.9
2022-10-05T10:39:43.179Z,21.9
2022-10-05T10:42:09.863Z,22.2
2022-10-05T10:44:36.371Z,21.9
2022-10-05T10:47:03.033Z,22
2022-10-05T10:49:29.602Z,22.3
2022-10-05T10:51:56.231Z,22.2
2022-10-05T10:54:22.851Z,22.2
2022-10-05T10:56:49.537Z,22.3
2022-10-05T10:59:16.138Z,22.5
2022-10-05T11:01:42.845Z,22.6
2022-10-05T11:04:09.351Z,22.7
2022-10-05T11:06:34.480Z,22.8
2022-10-05T11:09:01.095Z,22.8
2022-10-05T11:11:27.729Z,23
2022-10-05T11:13:54.366Z,23.2
2022-10-05T11:16:20.981Z,23.2
2022-10-05T11:18:47.600Z,23.5
2022-10-05T11:21:14.206Z,23.9
2022-10-05T11:26:07.450Z,24
2022-10-05T11:28:34.135Z,24.1
2022-10-05T11:31:00.851Z,24.1
2022-10-05T11:33:27.451Z,24.3
2022-10-05T11:35:54.078Z,24.7
2022-10-05T11:38:19.066Z,24.8
2022-10-05T11:40:45.717Z,24.9
2022-10-05T11:43:12.377Z,24.9
2022-10-05T11:45:38.966Z,24.9
2022-10-05T11:48:05.647Z,24.8
2022-10-05T11:50:32.183Z,24.7
2022-10-05T11:52:58.866Z,24.3
2022-10-05T11:55:25.491Z,24.4
2022-10-05T11:57:52.109Z,24.4
2022-10-05T12:00:18.677Z,24.6
2022-10-05T12:02:45.349Z,24.9
2022-10-05T12:05:11.925Z,25.4
2022-10-05T12:07:38.553Z,25.5
2022-10-05T12:10:03.672Z,25.6
2022-10-05T12:12:30.332Z,25.8
2022-10-05T12:14:56.966Z,25.8
2022-10-05T12:17:23.540Z,25.9
2022-10-05T12:19:50.209Z,26
2022-10-05T12:22:16.789Z,26.1
2022-10-05T12:24:43.406Z,26.1
2022-10-05T12:27:10.027Z,26.2
2022-10-05T12:29:36.654Z,26.2
2022-10-05T12:32:03.275Z,26.2
2022-10-05T12:34:29.908Z,26.4
2022-10-05T12:36:56.538Z,26.4
2022-10-05T12:39:23.185Z,26.3
2022-10-05T12:41:48.266Z,26.2
2022-10-05T12:44:14.885Z,26.1
2022-10-05T12:46:41.530Z,26.1
2022-10-05T12:49:08.141Z,26.1
2022-10-05T12:51:34.756Z,26.1
2022-10-05T12:54:01.446Z,26.3
2022-10-05T12:56:28.001Z,26.4
2022-10-05T12:58:54.641Z,26.4
2022-10-05T13:01:21.266Z,26.3
2022-10-05T13:03:47.871Z,26.2
2022-10-05T13:06:14.492Z,26.1
2022-10-05T13:08:41.221Z,26.1
2022-10-05T13:11:07.742Z,26.1
2022-10-05T13:13:32.855Z,26.1
2022-10-05T13:15:59.495Z,26
2022-10-05T13:18:26.119Z,26.1
2022-10-05T13:20:52.735Z,26.2
2022-10-05T13:23:19.372Z,26.3
2022-10-05T13:25:45.980Z,26.3
2022-10-05T13:28:12.600Z,26.2
2022-10-05T13:30:39.220Z,26
2022-10-05T13:33:05.852Z,26.1
2022-10-05T13:35:32.464Z,26.1
2022-10-05T13:37:59.092Z,26.2
2022-10-05T13:40:25.720Z,26.2
2022-10-05T13:42:52.337Z,26.2
2022-10-05T13:45:17.460Z,26.2
2022-10-05T13:47:44.085Z,26.3
2022-10-05T13:50:10.749Z,26.3
2022-10-05T13:52:37.344Z,26.3
2022-10-05T13:55:03.958Z,26.3
2022-10-05T13:57:30.580Z,26.4
2022-10-05T13:59:57.200Z,26.5
2022-10-05T14:02:23.868Z,26.5
2022-10-05T14:04:50.503Z,26.5
2022-10-05T14:07:17.068Z,26.4
2022-10-05T14:09:43.697Z,26.4
2022-10-05T14:14:36.933Z,26.2
2022-10-05T14:17:02.071Z,26.1
2022-10-05T14:19:28.689Z,26.1
2022-10-05T14:21:55.312Z,26.2
2022-10-05T14:24:21.932Z,26.2
2022-10-05T14:26:48.564Z,26.1
2022-10-05T14:29:15.175Z,25.9
2022-10-05T14:31:41.809Z,25.9
2022-10-05T14:36:35.072Z,25.7
2022-10-05T14:39:01.676Z,25.6
2022-10-05T14:41:28.295Z,25.3
2022-10-05T14:43:54.923Z,25.3
2022-10-05T14:46:21.546Z,25.4
2022-10-05T14:48:46.678Z,25.3
2022-10-05T14:53:39.952Z,25
2022-10-05T14:56:05.052Z,24.8
2022-10-05T14:58:30.181Z,24.9
2022-10-05T15:00:56.803Z,24.9
2022-10-05T15:03:21.932Z,24.9
2022-10-05T15:05:48.589Z,24.8
2022-10-05T15:08:15.173Z,24.9
2022-10-05T15:10:41.783Z,24.8
2022-10-05T15:13:08.416Z,24.9
2022-10-05T15:15:35.046Z,24.8
2022-10-05T15:18:01.701Z,24.6
2022-10-05T15:20:28.305Z,24.6
2022-10-05T15:22:53.410Z,24.4
2022-10-05T15:25:18.552Z,24.3
2022-10-05T15:27:45.196Z,24.2
2022-10-05T15:30:11.794Z,24
2022-10-05T15:32:38.417Z,23.9
2022-10-05T15:35:05.042Z,23.8
2022-10-05T15:37:31.668Z,23.7
2022-10-05T15:39:58.300Z,23.5
2022-10-05T15:42:24.929Z,23.3
2022-10-05T15:44:51.536Z,23
2022-10-05T15:47:18.152Z,22.8
2022-10-05T15:49:44.848Z,22.6
2022-10-05T15:52:11.418Z,22.4
2022-10-05T15:54:38.020Z,22.1
2022-10-05T15:57:03.151Z,22
2022-10-05T15:59:29.774Z,21.8
2022-10-05T16:01:56.415Z,21.6
2022-10-05T16:04:23.016Z,21.5
2022-10-05T16:06:49.646Z,21.4
2022-10-05T16:09:16.263Z,21.2
2022-10-05T16:14:09.504Z,20.8
2022-10-05T16:16:36.138Z,20.8
2022-10-05T16:19:02.762Z,20.8
2022-10-05T16:21:29.367Z,20.8
2022-10-05T16:23:56.000Z,20.8
2022-10-05T16:26:22.615Z,20.8
2022-10-05T16:28:47.744Z,20.7
2022-10-05T16:31:14.371Z,20.6
2022-10-05T16:33:40.990Z,20.4
2022-10-05T16:36:07.628Z,20.3
2022-10-05T16:38:34.252Z,20.1
2022-10-05T16:41:00.863Z,20
2022-10-05T16:43:27.485Z,19.8
2022-10-05T16:45:54.108Z,19.6
2022-10-05T16:48:20.748Z,19.5
2022-10-05T16:50:47.356Z,19.4
2022-10-05T16:53:13.982Z,19.3
2022-10-05T16:55:40.638Z,19.2
2022-10-05T16:58:07.286Z,19.1
2022-10-05T17:00:32.352Z,19.1
2022-10-05T17:02:58.982Z,18.9
2022-10-05T17:05:25.624Z,18.8
2022-10-05T17:07:52.224Z,18.7
2022-10-05T17:10:18.845Z,18.7
2022-10-05T17:12:45.465Z,18.5
2022-10-05T17:15:12.089Z,18.4
2022-10-05T17:17:38.714Z,18.1
2022-10-05T17:20:05.337Z,17.9
2022-10-05T17:22:31.954Z,17.8
2022-10-05T17:24:58.586Z,17.7
2022-10-05T17:27:25.243Z,17.5
2022-10-05T17:29:51.861Z,17.4
2022-10-05T17:32:16.956Z,17.3
2022-10-05T17:34:43.578Z,17.2
2022-10-05T17:37:10.200Z,17.3
2022-10-05T17:39:36.823Z,17.4
2022-10-05T17:42:03.433Z,17.6
2022-10-05T17:44:30.073Z,17.7
2022-10-05T17:46:56.691Z,17.6
2022-10-05T17:49:23.315Z,17.3
2022-10-05T17:51:49.929Z,16.8
2022-10-05T17:54:16.596Z,16.5
2022-10-05T17:56:43.176Z,16.3
2022-10-05T17:59:09.799Z,16.1
2022-10-05T18:01:36.421Z,15.8
2022-10-05T18:04:01.561Z,15.5
2022-10-05T18:08:54.807Z,15.4
2022-10-05T18:11:21.508Z,15.4
2022-10-05T18:13:48.049Z,15.3
2022-10-05T18:16:14.680Z,15.2
2022-10-05T18:18:41.277Z,15.1
2022-10-05T18:21:07.917Z,15
2022-10-05T18:23:34.529Z,14.9
2022-10-05T18:26:01.168Z,14.7
2022-10-05T18:28:27.786Z,14.5
2022-10-05T18:30:54.410Z,14.4
2022-10-05T18:33:21.037Z,14.3
2022-10-05T18:35:46.157Z,14.1
2022-10-05T18:38:12.762Z,14.1
2022-10-05T18:40:39.408Z,14
2022-10-05T18:43:06.028Z,13.9
2022-10-05T18:45:32.642Z,13.8
2022-10-05T18:47:59.265Z,13.7
2022-10-05T18:52:52.547Z,13.5
2022-10-05T18:55:19.139Z,13.4
2022-10-05T18:57:45.759Z,13.3
2022-10-05T19:00:12.434Z,13.2
2022-10-05T19:02:39.003Z,13.1
2022-10-05T19:05:05.633Z,13
2022-10-05T19:07:30.753Z,12.9
2022-10-05T19:09:57.377Z,12.8
2022-10-05T19:12:24.002Z,12.8
2022-10-05T19:14:50.627Z,12.8
2022-10-05T19:17:17.252Z,12.7
2022-10-05T19:19:43.905Z,12.6
2022-10-05T19:22:10.502Z,12.6
2022-10-05T19:24:37.130Z,12.5
2022-10-05T19:27:03.763Z,12.4
2022-10-05T19:29:30.374Z,12.3
2022-10-05T19:31:56.986Z,12.3
2022-10-05T19:34:23.607Z,12.3
2022-10-05T19:36:50.226Z,12.2
2022-10-05T19:39:15.358Z,12.1
2022-10-05T19:41:42.027Z,12.1
2022-10-05T19:44:08.615Z,12.1
2022-10-05T19:46:35.255Z,12.1
2022-10-05T19:49:01.844Z,12
2022-10-05T19:51:28.488Z,12
2022-10-05T19:53:55.087Z,12
2022-10-05T19:56:21.710Z,12
2022-10-05T19:58:48.340Z,12
2022-10-05T20:01:15.018Z,12
2022-10-05T20:06:08.222Z,11.9
2022-10-05T20:08:34.832Z,11.8
2022-10-05T20:10:59.940Z,11.7
2022-10-05T20:13:26.594Z,11.8
2022-10-05T20:15:53.204Z,11.5
2022-10-05T20:18:19.839Z,11.4
2022-10-05T20:20:46.454Z,11.5
2022-10-05T20:23:13.072Z,11.5
2022-10-05T20:25:39.726Z,11.5
2022-10-05T20:28:06.301Z,11.6
2022-10-05T20:30:32.941Z,11.6
2022-10-05T20:32:59.663Z,11.6
2022-10-05T20:35:26.207Z,11.6
2022-10-05T20:37:52.816Z,11.6
2022-10-05T20:40:19.438Z,11.6
2022-10-05T20:42:44.555Z,11.5
2022-10-05T20:45:11.175Z,11.4
2022-10-05T20:47:37.806Z,11.3
2022-10-05T20:50:04.482Z,11.2
2022-10-05T20:52:31.049Z,11.1
2022-10-05T20:54:57.738Z,11.1
2022-10-05T20:57:24.281Z,11.1
2022-10-05T20:59:50.908Z,11
2022-10-05T21:02:17.605Z,11
2022-10-05T21:04:44.158Z,11
2022-10-05T21:07:10.809Z,10.9
2022-10-05T21:09:37.411Z,10.9
2022-10-05T21:12:04.045Z,10.8
2022-10-05T21:14:29.156Z,10.8
2022-10-05T21:16:55.768Z,10.7
2022-10-05T21:19:22.397Z,10.7
2022-10-05T21:21:49.022Z,10.7
2022-10-05T21:24:15.644Z,10.8
2022-10-05T21:26:42.270Z,10.8
2022-10-05T21:29:08.892Z,10.8
2022-10-05T21:31:35.513Z,10.7
2022-10-05T21:34:02.131Z,10.6
2022-10-05T21:36:28.747Z,10.6
2022-10-05T21:38:55.385Z,10.6
2022-10-05T21:41:22.004Z,10.5
2022-10-05T21:43:48.642Z,10.5
2022-10-05T21:46:13.756Z,10.5
2022-10-05T21:48:40.374Z,10.4
2022-10-05T21:51:07.004Z,10.4
2022-10-05T21:53:33.626Z,10.3
2022-10-05T21:56:00.251Z,10.3
2022-10-05T21:58:26.869Z,10.3
2022-10-05T22:00:53.549Z,10.2
2022-10-05T22:03:20.113Z,10.3
2022-10-05T22:05:46.740Z,10.2
2022-10-05T22:08:13.375Z,10.2
2022-10-05T22:10:40.006Z,10.3
2022-10-05T22:13:06.648Z,10.2
2022-10-05T22:17:59.852Z,10.1
2022-10-05T22:20:25.018Z,10.1
2022-10-05T22:22:51.685Z,10.2
2022-10-05T22:25:18.219Z,10.1
2022-10-05T22:27:44.839Z,10.1
2022-10-05T22:30:11.467Z,10.1
2022-10-05T22:32:38.091Z,10
2022-10-05T22:35:04.717Z,9.9
2022-10-05T22:37:31.335Z,9.9
2022-10-05T22:39:57.948Z,9.9
2022-10-05T22:42:24.604Z,9.9
2022-10-05T22:44:51.211Z,9.9
2022-10-05T22:47:17.831Z,9.9
2022-10-05T22:49:44.454Z,9.9
2022-10-05T22:52:09.581Z,9.8
2022-10-05T22:54:36.199Z,9.8
2022-10-05T22:57:02.826Z,9.9
2022-10-05T22:59:29.462Z,9.8
2022-10-05T23:01:56.099Z,9.9
2022-10-05T23:04:22.746Z,9.9
2022-10-05T23:06:49.319Z,9.8
2022-10-05T23:09:15.938Z,9.8
2022-10-05T23:11:42.561Z,9.7
2022-10-05T23:14:07.704Z,9.8
2022-10-05T23:16:34.318Z,9.8
2022-10-05T23:19:00.952Z,9.8
2022-10-05T23:21:27.562Z,9.7
2022-10-05T23:23:54.207Z,9.8
2022-10-05T23:26:20.828Z,9.9
2022-10-05T23:28:47.424Z,9.9
2022-10-05T23:31:14.051Z,9.8
2022-10-05T23:33:40.689Z,9.8
2022-10-05T23:36:07.300Z,9.8
2022-10-05T23:38:33.935Z,9.8
2022-10-05T23:41:00.548Z,9.7
2022-10-05T23:43:27.161Z,9.8
2022-10-05T23:45:52.304Z,9.8
2022-10-05T23:48:18.923Z,9.9
2022-10-05T23:50:45.543Z,9.8
2022-10-05T23:53:12.165Z,9.8
2022-10-05T23:55:38.800Z,9.7
2022-10-05T23:58:05.415Z,9.8
